Time;durP1;ratioP1;P1;durP2;ratioP2;P2;SDS_P1;SDS_P2;PMS_P1;PMS_P2;Temp;Humidity;BMP_temperature;BMP_pressure;BME280_temperature;BME280_humidity;BME280_pressure;Samples;Min_cycle;Max_cycle;Signal;HPM_P1;HPM_P2
2024/02/22 00:02:02;;;;;;;10.37;7.40;;;9.80;99.90;;;;;;5037208;28;20045;-86
2024/02/22 00:04:29;;;;;;;8.80;6.17;;;9.70;99.90;;;;;;5037982;28;20045;-85
2024/02/22 00:06:55;;;;;;;9.83;6.77;;;9.70;99.90;;;;;;5036931;28;20061;-85
2024/02/22 00:09:21;;;;;;;9.73;6.70;;;9.80;99.90;;;;;;5037693;28;20125;-85
2024/02/22 00:11:47;;;;;;;9.10;6.88;;;9.80;99.90;;;;;;5037517;28;20036;-85
2024/02/22 00:14:14;;;;;;;9.27;7.10;;;9.80;99.90;;;;;;5037677;28;20036;-85
2024/02/22 00:16:39;;;;;;;10.20;6.87;;;9.80;99.90;;;;;;5039708;28;20342;-86
2024/02/22 00:19:05;;;;;;;9.85;7.45;;;9.80;99.90;;;;;;5037729;28;20016;-86
2024/02/22 00:21:31;;;;;;;8.80;6.87;;;9.90;99.90;;;;;;5038629;28;20022;-85
2024/02/22 00:23:56;;;;;;;10.10;7.17;;;9.80;99.90;;;;;;5036930;28;20457;-85
2024/02/22 00:26:22;;;;;;;9.47;7.23;;;9.80;99.90;;;;;;5038204;28;20040;-85
2024/02/22 00:28:48;;;;;;;9.47;6.77;;;9.80;99.90;;;;;;5034686;28;20034;-85
2024/02/22 00:31:14;;;;;;;9.50;7.23;;;9.80;99.90;;;;;;5024361;28;20021;-86
2024/02/22 00:33:44;;;;;;;9.50;7.28;;;9.90;99.90;;;;;;5040987;28;20032;-84
2024/02/22 00:36:10;;;;;;;10.17;6.43;;;9.90;99.90;;;;;;5040820;28;20056;-85
2024/02/22 00:38:37;;;;;;;10.00;6.97;;;9.90;99.90;;;;;;5041206;28;20033;-86
2024/02/22 00:41:03;;;;;;;9.70;7.50;;;9.90;99.90;;;;;;5040601;28;20028;-85
2024/02/22 00:43:30;;;;;;;9.93;7.40;;;10.00;99.90;;;;;;5042464;28;20107;-85
2024/02/22 00:45:56;;;;;;;10.27;7.47;;;9.90;99.90;;;;;;5040998;28;20033;-85
2024/02/22 00:48:22;;;;;;;9.07;6.65;;;9.90;99.90;;;;;;5040348;28;20029;-86
2024/02/22 00:50:48;;;;;;;10.53;8.07;;;9.90;99.90;;;;;;5040484;28;20083;-85
2024/02/22 00:53:15;;;;;;;10.00;7.20;;;9.90;99.90;;;;;;5040659;28;20028;-85
2024/02/22 00:55:40;;;;;;;10.87;8.20;;;10.00;99.90;;;;;;5041099;28;20432;-86
2024/02/22 00:58:06;;;;;;;10.50;7.00;;;10.00;99.90;;;;;;5023973;28;20025;-86
2024/02/22 01:00:32;;;;;;;10.50;8.10;;;10.00;99.90;;;;;;5041265;28;20105;-86
2024/02/22 01:02:57;;;;;;;10.90;8.27;;;10.00;99.90;;;;;;5040721;28;20087;-83
2024/02/22 01:05:23;;;;;;;10.57;8.20;;;10.10;99.90;;;;;;5040924;28;20030;-84
2024/02/22 01:07:49;;;;;;;11.30;8.20;;;10.10;99.90;;;;;;5040881;28;20067;-84
2024/02/22 01:10:15;;;;;;;10.10;7.53;;;10.10;99.90;;;;;;5040584;28;20089;-86
2024/02/22 01:12:40;;;;;;;10.03;7.60;;;10.10;99.90;;;;;;5041002;28;20021;-86
2024/02/22 01:15:06;;;;;;;11.47;8.00;;;10.10;99.90;;;;;;5040216;28;20034;-86
2024/02/22 01:17:32;;;;;;;10.57;8.23;;;10.10;99.90;;;;;;5041051;28;20096;-85
2024/02/22 01:19:58;;;;;;;10.33;7.03;;;10.10;99.90;;;;;;5039869;28;20018;-84
2024/02/22 01:22:24;;;;;;;10.70;8.10;;;10.10;99.90;;;;;;5040789;28;20033;-83
2024/02/22 01:24:49;;;;;;;10.37;7.30;;;10.10;99.90;;;;;;5042210;28;20040;-85
2024/02/22 01:27:15;;;;;;;9.83;7.33;;;10.10;99.90;;;;;;5039834;28;20037;-85
2024/02/22 01:29:44;;;;;;;9.80;7.73;;;10.20;99.90;;;;;;5040511;28;20028;-84
2024/02/22 01:32:10;;;;;;;10.73;7.90;;;10.20;99.90;;;;;;5038911;28;20014;-84
2024/02/22 01:34:36;;;;;;;11.13;7.77;;;10.10;99.90;;;;;;5041823;28;20022;-85
2024/02/22 01:37:02;;;;;;;11.32;8.20;;;10.20;99.90;;;;;;5040069;28;20022;-86
2024/02/22 01:39:27;;;;;;;10.20;7.68;;;10.20;99.90;;;;;;5040433;28;20021;-85
2024/02/22 01:41:53;;;;;;;11.40;7.70;;;10.20;99.90;;;;;;5039958;28;20021;-85
2024/02/22 01:44:19;;;;;;;10.90;7.90;;;10.20;99.90;;;;;;5039510;28;20029;-86
2024/02/22 01:46:45;;;;;;;12.65;8.45;;;10.20;99.90;;;;;;5041192;28;20030;-86
2024/02/22 01:49:11;;;;;;;10.30;7.47;;;10.20;99.90;;;;;;5039667;28;20045;-86
2024/02/22 01:51:37;;;;;;;10.23;7.75;;;10.20;99.90;;;;;;5039834;28;20029;-85
2024/02/22 01:54:03;;;;;;;9.87;7.10;;;10.20;99.90;;;;;;5038643;28;20048;-85
2024/02/22 01:56:31;;;;;;;11.68;8.40;;;10.20;99.90;;;;;;5039804;28;20047;-85
2024/02/22 01:58:57;;;;;;;10.20;7.07;;;10.30;99.90;;;;;;5039253;28;20036;-85
2024/02/22 02:01:24;;;;;;;11.25;7.60;;;10.30;99.90;;;;;;5046476;28;20049;-85
2024/02/22 02:03:50;;;;;;;9.13;6.47;;;10.30;99.90;;;;;;5042592;28;20036;-84
2024/02/22 02:06:17;;;;;;;9.65;6.80;;;10.30;99.90;;;;;;5041771;28;20095;-85
2024/02/22 02:08:43;;;;;;;9.43;6.80;;;10.30;99.90;;;;;;5042825;28;20024;-85
2024/02/22 02:11:09;;;;;;;11.50;6.97;;;10.30;99.90;;;;;;5041457;28;20443;-84
2024/02/22 02:13:35;;;;;;;10.35;7.30;;;10.30;99.90;;;;;;5042896;28;20017;-83
2024/02/22 02:16:01;;;;;;;11.52;7.97;;;10.30;99.90;;;;;;5041871;28;20013;-84
2024/02/22 02:18:27;;;;;;;11.07;8.20;;;10.30;99.90;;;;;;5042064;28;20025;-84
2024/02/22 02:21:03;;;;;;;12.05;8.23;;;10.30;99.90;;;;;;5042638;28;20029;-84
2024/02/22 02:24:11;;;;;;;11.80;8.38;;;10.40;99.90;;;;;;5041830;28;20055;-84
2024/02/22 02:26:37;;;;;;;11.82;8.32;;;10.40;99.90;;;;;;5031866;28;20036;-84
2024/02/22 02:29:03;;;;;;;13.18;7.85;;;10.40;99.90;;;;;;5041620;28;20033;-84
2024/02/22 02:31:29;;;;;;;13.45;8.73;;;10.40;99.90;;;;;;5041409;28;20064;-84
2024/02/22 02:33:55;;;;;;;13.23;8.77;;;10.40;99.90;;;;;;5041917;28;20097;-85
2024/02/22 02:36:20;;;;;;;14.57;9.30;;;10.50;99.90;;;;;;5041895;28;20029;-85
2024/02/22 02:38:46;;;;;;;14.15;9.25;;;10.40;99.90;;;;;;5025806;28;20045;-86
2024/02/22 02:41:12;;;;;;;15.57;10.43;;;10.40;99.90;;;;;;5041102;28;20024;-86
2024/02/22 02:43:38;;;;;;;16.40;10.63;;;10.50;99.90;;;;;;5042262;28;20047;-86
2024/02/22 02:46:03;;;;;;;14.23;9.57;;;10.50;99.90;;;;;;5042298;28;20028;-87
2024/02/22 02:48:29;;;;;;;16.65;10.63;;;10.50;99.90;;;;;;5041769;28;20055;-86
2024/02/22 02:50:55;;;;;;;20.83;12.82;;;10.50;99.90;;;;;;5042378;28;20028;-86
2024/02/22 02:53:24;;;;;;;18.13;12.75;;;10.50;99.90;;;;;;5042183;28;20032;-85
2024/02/22 02:55:49;;;;;;;20.83;12.25;;;10.50;99.90;;;;;;5042121;28;20025;-85
2024/02/22 02:58:15;;;;;;;20.65;12.60;;;10.50;99.90;;;;;;5040810;28;20028;-85
2024/02/22 03:00:41;;;;;;;20.27;12.98;;;10.60;99.90;;;;;;5042282;28;20139;-86
2024/02/22 03:03:07;;;;;;;22.35;13.50;;;10.60;99.90;;;;;;5041784;28;20028;-84
2024/02/22 03:05:32;;;;;;;20.98;13.95;;;10.60;99.90;;;;;;5042260;28;20021;-85
2024/02/22 03:07:58;;;;;;;20.70;13.27;;;10.60;99.90;;;;;;5059392;28;20033;-85
2024/02/22 03:10:24;;;;;;;20.67;13.30;;;10.60;99.90;;;;;;5041721;28;20028;-85
2024/02/22 03:12:51;;;;;;;20.13;12.95;;;10.60;99.90;;;;;;5042265;28;20032;-85
2024/02/22 03:15:17;;;;;;;22.00;14.30;;;10.60;99.90;;;;;;5041506;28;20090;-86
2024/02/22 03:17:42;;;;;;;21.73;14.15;;;10.60;99.90;;;;;;5042417;28;20473;-84
2024/02/22 03:20:11;;;;;;;21.17;14.15;;;10.60;99.90;;;;;;5041331;28;20075;-85
2024/02/22 03:22:38;;;;;;;22.33;14.90;;;10.60;99.90;;;;;;5042093;28;20032;-84
2024/02/22 03:25:05;;;;;;;25.63;15.80;;;10.60;99.90;;;;;;5059931;28;20312;-84
2024/02/22 03:27:32;;;;;;;21.33;14.02;;;10.70;99.90;;;;;;5041527;28;20559;-84
2024/02/22 03:29:58;;;;;;;22.27;14.48;;;10.60;99.90;;;;;;5042151;28;20021;-84
2024/02/22 03:32:24;;;;;;;21.08;13.40;;;10.70;99.90;;;;;;5035905;28;20025;-85
2024/02/22 03:34:50;;;;;;;21.85;13.55;;;10.70;99.90;;;;;;5022919;28;20022;-85
2024/02/22 03:37:17;;;;;;;23.75;14.95;;;10.70;99.90;;;;;;5038913;28;20025;-83
2024/02/22 03:39:49;;;;;;;20.60;13.52;;;10.70;99.90;;;;;;5022223;28;20032;-86
2024/02/22 03:42:19;;;;;;;22.40;15.45;;;10.70;99.90;;;;;;5021490;28;20466;-84
2024/02/22 03:44:45;;;;;;;26.55;14.30;;;10.70;99.90;;;;;;5021711;28;20052;-84
2024/02/22 03:47:11;;;;;;;25.73;14.93;;;10.70;99.90;;;;;;5022049;28;20021;-83
2024/02/22 03:49:37;;;;;;;26.40;15.95;;;10.70;99.90;;;;;;5021537;28;20067;-84
2024/02/22 03:52:04;;;;;;;25.08;13.77;;;10.70;99.90;;;;;;5022311;28;20045;-84
2024/02/22 03:54:34;;;;;;;30.58;16.42;;;10.70;99.90;;;;;;5021529;28;20424;-84
2024/02/22 03:57:00;;;;;;;25.08;15.63;;;10.70;99.90;;;;;;5021768;28;20371;-85
2024/02/22 03:59:27;;;;;;;28.63;15.75;;;10.80;99.90;;;;;;5021554;28;20129;-85
2024/02/22 04:01:52;;;;;;;31.13;16.40;;;10.80;99.90;;;;;;5018076;28;20444;-84
2024/02/22 04:04:18;;;;;;;31.20;15.93;;;10.80;99.90;;;;;;5020823;28;20038;-84
2024/02/22 04:06:44;;;;;;;31.80;17.77;;;10.80;99.90;;;;;;5021858;28;20113;-84
2024/02/22 04:09:10;;;;;;;36.60;15.35;;;10.80;99.90;;;;;;5038916;28;20057;-85
2024/02/22 04:11:36;;;;;;;29.25;15.82;;;10.80;99.90;;;;;;5021698;28;20104;-85
2024/02/22 04:14:02;;;;;;;29.25;14.77;;;10.80;99.90;;;;;;5022372;28;20022;-85
2024/02/22 04:16:27;;;;;;;27.27;15.32;;;10.80;99.90;;;;;;5022564;28;20018;-84
2024/02/22 04:18:53;;;;;;;29.98;16.38;;;10.80;99.90;;;;;;5021980;28;20046;-84
2024/02/22 04:21:19;;;;;;;27.13;15.73;;;10.80;99.90;;;;;;5021750;28;20038;-85
2024/02/22 04:23:45;;;;;;;31.35;16.33;;;10.80;99.90;;;;;;5021381;28;20061;-84
2024/02/22 04:26:11;;;;;;;32.17;17.05;;;10.80;99.90;;;;;;5021934;28;20029;-85
2024/02/22 04:28:37;;;;;;;30.33;16.83;;;10.80;99.90;;;;;;5021352;28;20030;-84
2024/02/22 04:31:04;;;;;;;30.42;16.50;;;10.80;99.90;;;;;;5021340;28;20021;-85
2024/02/22 04:33:30;;;;;;;26.33;14.73;;;10.80;99.90;;;;;;5021214;28;20030;-85
2024/02/22 04:35:56;;;;;;;30.92;14.90;;;10.80;99.90;;;;;;5020935;28;20030;-86
2024/02/22 04:38:22;;;;;;;37.28;17.17;;;10.80;99.90;;;;;;5021408;28;20026;-85
2024/02/22 04:40:48;;;;;;;34.17;16.55;;;10.80;99.90;;;;;;5020192;28;20060;-84
2024/02/22 04:43:13;;;;;;;27.60;15.10;;;10.80;99.90;;;;;;5005363;28;20045;-84
2024/02/22 04:45:39;;;;;;;27.15;14.63;;;10.80;99.90;;;;;;5020910;28;20018;-84
2024/02/22 04:48:06;;;;;;;27.15;14.00;;;10.80;99.90;;;;;;5020994;28;20038;-84
2024/02/22 04:50:33;;;;;;;29.38;15.95;;;10.80;99.90;;;;;;5020531;28;20022;-84
2024/02/22 04:53:00;;;;;;;34.88;15.32;;;10.70;99.90;;;;;;5021039;28;20033;-84
2024/02/22 04:55:26;;;;;;;32.90;13.60;;;10.70;99.90;;;;;;5036653;28;20061;-84
2024/02/22 04:57:54;;;;;;;27.58;14.05;;;10.70;99.90;;;;;;5020857;28;20030;-84
2024/02/22 05:00:20;;;;;;;32.38;13.55;;;10.70;99.90;;;;;;5021080;28;20018;-83
2024/02/22 05:02:45;;;;;;;25.38;12.65;;;10.70;99.90;;;;;;5036607;28;20042;-84
2024/02/22 05:05:11;;;;;;;24.25;12.23;;;10.70;99.90;;;;;;5020944;28;20161;-84
2024/02/22 05:07:37;;;;;;;23.73;10.68;;;10.70;99.90;;;;;;5022066;28;20091;-84
2024/02/22 05:10:03;;;;;;;23.17;10.75;;;10.70;99.90;;;;;;5021842;28;20026;-84
2024/02/22 05:12:29;;;;;;;29.52;11.13;;;10.60;99.90;;;;;;5033266;28;20044;-84
2024/02/22 05:14:55;;;;;;;22.77;10.35;;;10.60;99.90;;;;;;5039347;28;20049;-85
2024/02/22 05:17:21;;;;;;;25.80;8.82;;;10.60;99.90;;;;;;5039810;28;20025;-85
2024/02/22 05:19:48;;;;;;;28.27;10.30;;;10.60;99.90;;;;;;5039756;28;20052;-84
2024/02/22 05:22:14;;;;;;;27.83;9.63;;;10.60;99.90;;;;;;5041363;28;20031;-84
2024/02/22 05:24:40;;;;;;;20.98;8.70;;;10.50;99.90;;;;;;5039397;28;20041;-84
2024/02/22 05:27:07;;;;;;;24.08;8.18;;;10.50;99.90;;;;;;5040407;28;20101;-85
2024/02/22 05:29:33;;;;;;;24.02;8.32;;;10.40;99.90;;;;;;5040611;28;20033;-83
2024/02/22 05:31:59;;;;;;;28.85;9.07;;;10.30;99.90;;;;;;5039863;28;20021;-86
2024/02/22 05:34:25;;;;;;;26.75;7.82;;;10.30;99.90;;;;;;5040616;28;20017;-84
2024/02/22 05:36:51;;;;;;;24.60;8.13;;;10.20;99.90;;;;;;5040037;28;20021;-83
2024/02/22 05:39:17;;;;;;;20.50;6.70;;;10.20;99.90;;;;;;5040844;28;20013;-84
2024/02/22 05:41:43;;;;;;;27.23;6.93;;;10.20;99.90;;;;;;5040515;28;20025;-85
2024/02/22 05:44:09;;;;;;;21.90;7.43;;;10.20;99.90;;;;;;5040324;28;20056;-84
2024/02/22 05:46:35;;;;;;;25.75;6.63;;;10.20;99.90;;;;;;5039930;28;20036;-84
2024/02/22 05:49:00;;;;;;;23.30;6.30;;;10.20;99.90;;;;;;5039810;28;20064;-84
2024/02/22 05:51:28;;;;;;;24.33;5.90;;;10.20;99.90;;;;;;5039992;28;20108;-84
2024/02/22 05:53:54;;;;;;;23.73;6.65;;;10.20;99.90;;;;;;5039714;28;20054;-84
2024/02/22 05:56:20;;;;;;;23.63;6.60;;;10.20;99.90;;;;;;5040232;28;20036;-84
2024/02/22 05:58:46;;;;;;;16.27;5.95;;;10.20;99.90;;;;;;5039340;28;20022;-84
2024/02/22 06:01:14;;;;;;;17.42;5.90;;;10.20;99.90;;;;;;5040220;28;20048;-84
2024/02/22 06:03:40;;;;;;;19.58;6.40;;;10.20;99.90;;;;;;5039958;28;20081;-83
2024/02/22 06:06:06;;;;;;;33.85;9.60;;;10.20;99.90;;;;;;5039658;28;20021;-83
2024/02/22 06:08:32;;;;;;;25.17;11.75;;;10.20;99.90;;;;;;5039733;28;20528;-83
2024/02/22 06:10:57;;;;;;;26.50;12.30;;;10.20;99.90;;;;;;5038916;28;20022;-87
2024/02/22 06:13:23;;;;;;;28.52;14.30;;;10.20;99.90;;;;;;5039793;28;20032;-83
2024/02/22 06:15:49;;;;;;;30.20;14.80;;;10.20;99.90;;;;;;5038725;28;20033;-83
2024/02/22 06:18:15;;;;;;;29.83;13.98;;;10.20;99.90;;;;;;5039642;28;20034;-84
2024/02/22 06:20:41;;;;;;;29.63;14.05;;;10.20;99.90;;;;;;5039171;28;20036;-83
2024/02/22 06:23:06;;;;;;;31.02;15.23;;;10.20;99.90;;;;;;5039763;28;20484;-84
2024/02/22 06:25:32;;;;;;;29.77;14.65;;;10.20;99.90;;;;;;5038939;28;20030;-83
2024/02/22 06:27:58;;;;;;;33.72;16.13;;;10.20;99.90;;;;;;5038889;28;20480;-84
2024/02/22 06:30:23;;;;;;;25.25;14.52;;;10.20;99.90;;;;;;5039829;28;20026;-84
2024/02/22 06:32:49;;;;;;;27.15;14.77;;;10.20;99.90;;;;;;5037732;28;20037;-84
2024/02/22 06:35:17;;;;;;;34.08;14.45;;;10.20;99.90;;;;;;5039553;28;20022;-84
2024/02/22 06:37:44;;;;;;;28.17;14.98;;;10.20;99.90;;;;;;5038802;28;20652;-84
2024/02/22 06:40:11;;;;;;;24.73;14.43;;;10.20;99.90;;;;;;5038388;28;20052;-84
2024/02/22 06:42:38;;;;;;;23.77;13.82;;;10.20;99.90;;;;;;5038322;28;20066;-84
2024/02/22 06:45:05;;;;;;;24.98;12.77;;;10.20;99.90;;;;;;5037728;28;20362;-83
2024/02/22 06:47:31;;;;;;;29.25;13.32;;;10.20;99.90;;;;;;5038579;28;20021;-83
2024/02/22 06:49:56;;;;;;;22.58;12.05;;;10.20;99.90;;;;;;5037529;28;20038;-84
2024/02/22 06:52:22;;;;;;;25.50;11.40;;;10.10;99.90;;;;;;5039322;28;20489;-85
2024/02/22 06:54:50;;;;;;;24.03;12.03;;;10.10;99.90;;;;;;5038622;28;20029;-83
2024/02/22 06:57:16;;;;;;;26.50;10.70;;;10.10;99.90;;;;;;5039024;28;20406;-84
2024/02/22 06:59:42;;;;;;;24.92;11.50;;;10.10;99.90;;;;;;5038676;28;20026;-84
2024/02/22 07:02:08;;;;;;;22.40;11.00;;;10.10;99.90;;;;;;5038585;28;20048;-84
2024/02/22 07:04:33;;;;;;;22.33;10.27;;;10.00;99.90;;;;;;5038390;28;20065;-83
2024/02/22 07:06:59;;;;;;;25.13;11.03;;;10.00;99.90;;;;;;5038486;28;20029;-83
2024/02/22 07:09:25;;;;;;;26.23;10.60;;;10.00;99.90;;;;;;5039259;28;20168;-82
2024/02/22 07:11:51;;;;;;;26.00;10.97;;;10.00;99.90;;;;;;5038271;28;20017;-82
2024/02/22 07:14:16;;;;;;;21.50;10.03;;;10.00;99.90;;;;;;5038964;28;20026;-82
2024/02/22 07:16:42;;;;;;;18.85;9.88;;;10.00;99.90;;;;;;5038855;28;20021;-82
2024/02/22 07:19:08;;;;;;;18.30;10.48;;;9.90;99.90;;;;;;5038661;28;20021;-82
2024/02/22 07:21:35;;;;;;;15.80;8.93;;;10.00;99.90;;;;;;5038587;28;20017;-83
2024/02/22 07:24:03;;;;;;;20.17;9.87;;;10.00;99.90;;;;;;5038337;28;20071;-82
2024/02/22 07:26:32;;;;;;;18.02;10.07;;;10.00;99.90;;;;;;5038586;28;20033;-83
2024/02/22 07:28:59;;;;;;;22.05;9.77;;;10.00;99.90;;;;;;5037968;28;20033;-83
2024/02/22 07:31:25;;;;;;;17.70;8.43;;;10.00;99.90;;;;;;5037835;28;20029;-83
2024/02/22 07:33:51;;;;;;;16.13;9.35;;;10.10;99.90;;;;;;5038297;28;20108;-83
2024/02/22 07:36:17;;;;;;;17.27;8.15;;;10.10;99.90;;;;;;5038652;28;20491;-82
2024/02/22 07:38:42;;;;;;;16.97;8.63;;;10.10;99.90;;;;;;5041862;28;20014;-82
2024/02/22 07:41:15;;;;;;;19.88;10.05;;;10.20;99.90;;;;;;5042399;28;20025;-82
2024/02/22 07:43:45;;;;;;;19.50;10.75;;;10.20;99.90;;;;;;5042856;28;20026;-82
2024/02/22 07:46:12;;;;;;;17.87;10.57;;;10.20;99.90;;;;;;5043778;28;20022;-82
2024/02/22 07:48:41;;;;;;;20.70;10.13;;;10.30;99.90;;;;;;5042672;28;20105;-82
2024/02/22 07:51:08;;;;;;;21.50;10.93;;;10.30;99.90;;;;;;5042798;28;20049;-82
2024/02/22 07:53:35;;;;;;;24.50;11.88;;;10.30;99.90;;;;;;5044113;28;20030;-81
2024/02/22 07:56:05;;;;;;;17.65;11.55;;;10.40;99.90;;;;;;5042397;28;20032;-82
2024/02/22 07:58:33;;;;;;;20.80;12.88;;;10.40;99.90;;;;;;5041787;28;20456;-82
2024/02/22 08:00:59;;;;;;;26.60;13.52;;;10.40;99.90;;;;;;5042899;28;20430;-82
2024/02/22 08:03:27;;;;;;;24.75;14.00;;;10.40;99.90;;;;;;5044856;28;20090;-82
2024/02/22 08:05:53;;;;;;;20.75;12.82;;;10.40;99.90;;;;;;5045993;28;20052;-82
2024/02/22 08:08:20;;;;;;;24.63;13.38;;;10.40;99.90;;;;;;5044900;28;20025;-81
2024/02/22 08:10:45;;;;;;;23.77;14.25;;;10.40;99.90;;;;;;5045079;28;20036;-81
2024/02/22 08:13:12;;;;;;;25.48;13.30;;;10.50;99.90;;;;;;5045756;28;20067;-81
2024/02/22 08:15:37;;;;;;;19.83;11.75;;;10.50;99.90;;;;;;5044760;28;20029;-82
2024/02/22 08:18:05;;;;;;;23.88;13.23;;;10.60;99.90;;;;;;5045258;28;20025;-82
2024/02/22 08:20:31;;;;;;;18.90;12.65;;;10.60;99.90;;;;;;5044435;28;20021;-82
2024/02/22 08:22:57;;;;;;;19.77;12.25;;;10.60;99.90;;;;;;5045017;28;20079;-81
2024/02/22 08:25:22;;;;;;;18.10;11.68;;;10.60;99.90;;;;;;5045215;28;20020;-82
2024/02/22 08:27:51;;;;;;;17.67;11.43;;;10.60;99.90;;;;;;5045371;28;20057;-82
2024/02/22 08:30:17;;;;;;;15.77;10.93;;;10.60;99.90;;;;;;5063595;28;20021;-83
2024/02/22 08:32:43;;;;;;;16.83;9.55;;;10.60;99.90;;;;;;5027649;28;20032;-82
2024/02/22 08:35:09;;;;;;;17.00;10.52;;;10.60;99.90;;;;;;5045367;28;20387;-82
2024/02/22 08:37:34;;;;;;;13.27;8.70;;;10.60;99.90;;;;;;5043904;28;20715;-83
2024/02/22 08:40:00;;;;;;;12.68;7.82;;;10.70;99.90;;;;;;5045292;28;20045;-83
2024/02/22 08:42:26;;;;;;;13.38;7.72;;;10.70;99.90;;;;;;5044279;28;20543;-83
2024/02/22 08:44:51;;;;;;;13.57;7.88;;;10.70;99.90;;;;;;5044640;28;20048;-83
2024/02/22 08:47:17;;;;;;;10.98;6.75;;;10.70;99.90;;;;;;5044355;28;20013;-81
2024/02/22 08:49:45;;;;;;;11.95;7.47;;;10.80;99.90;;;;;;5043697;28;20488;-82
2024/02/22 08:52:11;;;;;;;11.73;6.68;;;10.80;99.90;;;;;;5044805;28;20028;-81
2024/02/22 08:54:38;;;;;;;11.88;6.88;;;10.80;99.90;;;;;;5044099;28;20021;-82
2024/02/22 08:57:04;;;;;;;10.32;6.32;;;10.80;99.90;;;;;;5044982;28;20029;-81
2024/02/22 08:59:31;;;;;;;9.60;6.80;;;10.90;99.90;;;;;;5044007;28;20022;-82
2024/02/22 09:01:57;;;;;;;9.43;6.90;;;10.90;99.90;;;;;;5062408;28;20045;-82
2024/02/22 09:04:26;;;;;;;12.88;7.05;;;10.90;99.90;;;;;;5044536;28;20021;-81
2024/02/22 09:06:52;;;;;;;9.68;5.55;;;10.90;99.90;;;;;;5044344;28;20031;-82
2024/02/22 09:09:18;;;;;;;8.80;5.75;;;11.00;99.90;;;;;;5044635;28;20104;-83
2024/02/22 09:11:44;;;;;;;8.15;5.40;;;11.00;99.90;;;;;;5043884;28;20052;-84
2024/02/22 09:14:09;;;;;;;8.23;5.88;;;11.10;99.90;;;;;;5044759;28;20370;-82
2024/02/22 09:16:35;;;;;;;8.77;5.93;;;11.10;99.90;;;;;;5061376;28;20036;-82
2024/02/22 09:19:01;;;;;;;8.57;6.22;;;11.20;99.90;;;;;;5044246;28;20031;-83
2024/02/22 09:21:26;;;;;;;9.30;5.90;;;11.20;99.90;;;;;;5043870;28;20044;-83
2024/02/22 09:23:52;;;;;;;8.07;5.85;;;11.30;99.90;;;;;;5044278;28;20017;-83
2024/02/22 09:26:18;;;;;;;7.72;4.65;;;11.30;99.90;;;;;;5044673;28;20422;-83
2024/02/22 09:28:43;;;;;;;6.13;4.50;;;11.40;99.90;;;;;;5043437;28;20072;-83
2024/02/22 09:31:09;;;;;;;8.13;5.13;;;11.40;99.90;;;;;;5042883;28;20059;-83
2024/02/22 09:33:35;;;;;;;7.03;4.43;;;11.50;99.90;;;;;;5042526;28;20131;-83
2024/02/22 09:36:00;;;;;;;7.22;4.47;;;11.50;99.90;;;;;;5062245;28;20070;-83
2024/02/22 09:38:26;;;;;;;6.82;3.80;;;11.50;99.90;;;;;;5043537;28;20009;-84
2024/02/22 09:40:52;;;;;;;6.45;4.47;;;11.50;99.90;;;;;;5043740;28;20021;-83
2024/02/22 09:43:18;;;;;;;5.90;4.13;;;11.50;99.90;;;;;;5043322;28;20014;-82
2024/02/22 09:45:46;;;;;;;6.40;4.38;;;11.50;99.90;;;;;;5042451;28;20104;-83
2024/02/22 09:48:11;;;;;;;6.30;4.50;;;11.50;99.90;;;;;;5043550;28;20033;-83
2024/02/22 09:50:37;;;;;;;6.95;5.03;;;11.50;99.90;;;;;;5060800;28;20547;-83
2024/02/22 09:53:03;;;;;;;7.03;4.93;;;11.50;99.90;;;;;;5043586;28;20048;-83
2024/02/22 09:55:29;;;;;;;8.52;4.50;;;11.50;99.90;;;;;;5043123;28;20020;-83
2024/02/22 09:57:55;;;;;;;6.28;4.68;;;11.50;99.90;;;;;;5043372;28;20051;-83
2024/02/22 10:00:21;;;;;;;5.65;3.60;;;11.60;99.90;;;;;;5042833;28;20079;-82
2024/02/22 10:02:47;;;;;;;4.75;3.40;;;11.60;99.90;;;;;;5041971;28;20060;-83
2024/02/22 10:05:13;;;;;;;3.85;2.42;;;11.70;99.90;;;;;;5043779;28;20043;-83
2024/02/22 10:07:40;;;;;;;4.60;2.60;;;11.70;99.90;;;;;;5042482;28;20052;-82
2024/02/22 10:10:06;;;;;;;4.85;2.33;;;11.80;99.90;;;;;;5043766;28;20021;-83
2024/02/22 10:12:35;;;;;;;3.70;2.50;;;11.80;99.90;;;;;;5042164;28;20017;-82
2024/02/22 10:15:06;;;;;;;3.08;2.10;;;11.80;99.90;;;;;;5043164;28;20064;-83
2024/02/22 10:17:32;;;;;;;3.45;2.10;;;11.80;99.90;;;;;;5043023;28;20025;-82
2024/02/22 10:20:00;;;;;;;2.60;1.65;;;11.80;99.90;;;;;;5060785;28;20049;-83
2024/02/22 10:22:27;;;;;;;2.95;1.73;;;11.80;99.90;;;;;;5044060;28;20021;-82
2024/02/22 10:24:54;;;;;;;2.85;2.00;;;11.80;99.90;;;;;;5060078;28;20064;-83
2024/02/22 10:27:24;;;;;;;3.28;1.90;;;11.80;99.90;;;;;;5043089;28;20025;-83
2024/02/22 10:29:52;;;;;;;3.03;2.08;;;11.80;99.90;;;;;;5042377;28;20039;-83
2024/02/22 10:32:19;;;;;;;2.85;1.67;;;11.80;99.90;;;;;;5060090;28;20039;-83
2024/02/22 10:34:51;;;;;;;2.90;2.10;;;11.80;99.90;;;;;;5042907;28;20025;-82
2024/02/22 10:37:18;;;;;;;4.90;2.50;;;11.80;99.90;;;;;;5042053;28;20017;-83
2024/02/22 10:39:45;;;;;;;3.13;2.20;;;11.70;99.90;;;;;;5043256;28;20059;-83
2024/02/22 10:42:14;;;;;;;2.92;1.77;;;11.70;99.90;;;;;;5041759;28;20029;-83
2024/02/22 10:44:46;;;;;;;2.92;1.90;;;11.70;99.90;;;;;;5043105;28;20033;-82
2024/02/22 10:47:11;;;;;;;3.60;1.80;;;11.70;99.90;;;;;;5025569;28;20037;-83
2024/02/22 10:49:42;;;;;;;3.13;1.70;;;11.70;99.90;;;;;;5042484;28;20033;-83
2024/02/22 10:52:10;;;;;;;3.05;1.40;;;11.70;99.90;;;;;;5043121;28;20025;-83
2024/02/22 10:54:35;;;;;;;2.72;1.90;;;11.70;99.90;;;;;;5041723;28;20097;-83
2024/02/22 10:57:02;;;;;;;2.03;1.38;;;11.70;99.90;;;;;;5042966;28;20029;-82
2024/02/22 10:59:29;;;;;;;1.75;1.05;;;11.80;99.90;;;;;;5041487;28;20102;-83
2024/02/22 11:01:58;;;;;;;2.22;1.50;;;11.80;99.90;;;;;;5060498;28;20056;-83
2024/02/22 11:04:23;;;;;;;2.85;1.60;;;11.80;99.90;;;;;;5041903;28;20097;-83
2024/02/22 11:06:49;;;;;;;2.53;1.50;;;11.90;99.90;;;;;;5042030;28;20025;-83
2024/02/22 11:09:19;;;;;;;2.20;1.40;;;11.90;99.90;;;;;;5042150;28;20120;-83
2024/02/22 11:11:48;;;;;;;2.90;1.40;;;12.00;99.90;;;;;;5041650;28;20021;-83
2024/02/22 11:14:25;;;;;;;2.70;1.52;;;12.00;99.90;;;;;;5042709;28;20480;-83
2024/02/22 11:16:51;;;;;;;2.25;1.25;;;12.00;99.90;;;;;;5041781;28;20080;-83
2024/02/22 11:19:24;;;;;;;2.00;1.10;;;12.00;99.90;;;;;;5042297;28;20029;-83
2024/02/22 11:21:51;;;;;;;4.75;1.52;;;12.00;99.90;;;;;;5042131;28;20021;-83
2024/02/22 11:24:25;;;;;;;4.13;1.42;;;12.00;99.90;;;;;;5059523;28;20544;-83
2024/02/22 11:26:52;;;;;;;2.88;1.23;;;12.00;99.90;;;;;;5042429;28;20058;-83
2024/02/22 11:29:29;;;;;;;1.85;1.30;;;12.10;99.90;;;;;;5041251;28;20116;-83
2024/02/22 11:32:01;;;;;;;3.05;1.50;;;12.10;99.90;;;;;;5041930;28;20021;-82
2024/02/22 11:34:28;;;;;;;3.17;1.38;;;12.10;99.90;;;;;;5041724;28;20051;-83
2024/02/22 11:37:11;;;;;;;2.10;1.50;;;12.10;99.90;;;;;;5041707;28;20025;-82
2024/02/22 11:39:37;;;;;;;4.38;0.90;;;12.20;99.90;;;;;;5060101;28;20025;-83
2024/02/22 11:42:12;;;;;;;2.70;1.13;;;12.10;99.90;;;;;;5059544;28;20033;-82
2024/02/22 11:44:38;;;;;;;2.30;1.13;;;12.10;99.90;;;;;;5042586;28;20036;-83
2024/02/22 11:47:06;;;;;;;4.68;1.20;;;12.10;99.90;;;;;;5041111;28;20029;-83
2024/02/22 11:49:32;;;;;;;2.58;1.00;;;12.10;99.90;;;;;;5041650;28;20036;-83
2024/02/22 11:51:58;;;;;;;3.88;1.02;;;12.10;99.90;;;;;;5041856;28;20040;-82
2024/02/22 11:54:24;;;;;;;1.73;1.00;;;12.10;99.90;;;;;;5041593;28;20071;-82
2024/02/22 11:56:50;;;;;;;3.45;1.23;;;12.10;99.90;;;;;;5042611;28;20431;-83
2024/02/22 11:59:16;;;;;;;4.15;1.15;;;12.10;99.90;;;;;;5041121;28;20078;-82
2024/02/22 12:01:42;;;;;;;1.92;1.02;;;12.10;99.90;;;;;;5041901;28;20057;-83
2024/02/22 12:04:08;;;;;;;3.38;1.10;;;12.10;99.90;;;;;;5040982;28;20473;-82
2024/02/22 12:06:34;;;;;;;2.60;1.05;;;12.10;99.90;;;;;;5041802;28;20032;-82
2024/02/22 12:09:01;;;;;;;3.33;1.25;;;12.10;99.90;;;;;;5041283;28;20032;-82
2024/02/22 12:11:26;;;;;;;1.95;1.00;;;12.10;99.90;;;;;;5041647;28;20018;-82
2024/02/22 12:13:57;;;;;;;2.40;1.20;;;12.20;99.90;;;;;;5041862;28;20055;-83
2024/02/22 12:16:23;;;;;;;2.38;1.20;;;12.20;99.90;;;;;;5041005;28;20021;-83
2024/02/22 12:18:51;;;;;;;3.33;1.08;;;12.20;99.90;;;;;;5042456;28;20543;-83
2024/02/22 12:21:21;;;;;;;2.88;0.95;;;12.20;99.90;;;;;;5041152;28;20032;-83
2024/02/22 12:23:47;;;;;;;3.15;1.00;;;12.20;99.90;;;;;;5059390;28;20036;-83
2024/02/22 12:26:18;;;;;;;1.98;0.93;;;12.30;99.90;;;;;;5044288;28;20514;-83
2024/02/22 12:28:50;;;;;;;4.60;0.90;;;12.30;99.90;;;;;;5044426;28;20055;-82
2024/02/22 12:31:18;;;;;;;1.58;0.90;;;12.30;99.90;;;;;;5045602;28;20032;-83
2024/02/22 12:33:47;;;;;;;1.80;1.00;;;12.30;99.90;;;;;;5044030;28;20543;-83
2024/02/22 12:36:13;;;;;;;6.63;1.30;;;12.30;99.90;;;;;;5045812;28;20039;-82